Time;durP1;ratioP1;P1;durP2;ratioP2;P2;SDS_P1;SDS_P2;PMS_P1;PMS_P2;Temp;Humidity;BMP_temperature;BMP_pressure;BME280_temperature;BME280_humidity;BME280_pressure;Samples;Min_cycle;Max_cycle;Signal;HPM_P1;HPM_P2
2021/08/13 00:01:18;;;;;;;8.82;5.85;;;17.30;99.90;;;;;;5070124;28;20453;-79
2021/08/13 00:03:44;;;;;;;8.98;6.07;;;17.30;99.90;;;;;;5070537;28;20052;-79
2021/08/13 00:06:10;;;;;;;11.40;6.28;;;17.30;99.90;;;;;;5068944;28;20682;-79
2021/08/13 00:08:36;;;;;;;10.02;6.40;;;17.30;99.90;;;;;;5057499;28;20082;-79
2021/08/13 00:11:02;;;;;;;10.73;6.50;;;17.30;99.90;;;;;;5074205;28;20066;-80
2021/08/13 00:13:27;;;;;;;10.00;6.30;;;17.20;99.90;;;;;;5025365;28;20071;-80
2021/08/13 00:15:53;;;;;;;10.10;5.82;;;17.20;99.90;;;;;;5069942;28;20028;-79
2021/08/13 00:18:19;;;;;;;11.05;6.68;;;17.20;99.90;;;;;;5070266;28;20089;-79
2021/08/13 00:20:44;;;;;;;8.57;6.22;;;17.20;99.90;;;;;;5061760;28;20032;-79
2021/08/13 00:23:10;;;;;;;9.10;6.05;;;17.20;99.90;;;;;;5055889;28;20669;-79
2021/08/13 00:25:36;;;;;;;10.75;6.65;;;17.30;99.90;;;;;;5040387;28;20028;-79
2021/08/13 00:28:01;;;;;;;9.60;5.85;;;17.20;99.90;;;;;;5075455;28;20052;-79
2021/08/13 00:30:27;;;;;;;8.52;6.25;;;17.30;99.90;;;;;;5067027;28;20028;-79
2021/08/13 00:32:53;;;;;;;11.85;6.82;;;17.30;99.90;;;;;;5065821;28;20025;-78
2021/08/13 00:35:19;;;;;;;8.65;6.22;;;17.30;99.90;;;;;;5037168;28;20037;-79
2021/08/13 00:37:44;;;;;;;8.45;5.80;;;17.30;99.90;;;;;;5056428;28;20028;-79
2021/08/13 00:40:11;;;;;;;10.07;5.75;;;17.20;99.90;;;;;;5056387;28;20032;-79
2021/08/13 00:42:38;;;;;;;9.98;6.60;;;17.20;99.90;;;;;;5046061;28;20039;-79
2021/08/13 00:45:05;;;;;;;8.27;6.35;;;17.20;99.90;;;;;;5047768;28;20045;-79
2021/08/13 00:47:34;;;;;;;10.38;6.15;;;17.20;99.90;;;;;;5068748;28;20027;-79
2021/08/13 00:50:10;;;;;;;8.23;6.13;;;17.10;99.90;;;;;;5035662;28;20060;-79
2021/08/13 00:52:45;;;;;;;8.88;6.15;;;17.10;99.90;;;;;;5035262;28;20021;-79
2021/08/13 00:55:13;;;;;;;11.15;6.53;;;17.00;99.90;;;;;;5053127;28;20050;-79
2021/08/13 00:58:07;;;;;;;9.45;5.60;;;17.00;99.90;;;;;;5055843;28;20041;-79
2021/08/13 01:00:40;;;;;;;9.15;6.18;;;17.00;99.90;;;;;;5047757;28;20062;-79
2021/08/13 01:03:07;;;;;;;7.80;5.55;;;17.00;99.90;;;;;;5043350;28;20044;-79
2021/08/13 01:05:37;;;;;;;9.00;6.35;;;16.90;99.90;;;;;;5053491;28;20032;-79
2021/08/13 01:08:03;;;;;;;9.85;6.10;;;16.90;99.90;;;;;;5036360;28;20063;-79
2021/08/13 01:10:33;;;;;;;7.95;5.72;;;16.90;99.90;;;;;;5058894;28;20028;-79
2021/08/13 01:13:12;;;;;;;8.30;5.65;;;16.80;99.90;;;;;;5065157;28;20075;-79
2021/08/13 01:15:49;;;;;;;8.80;6.28;;;16.80;99.90;;;;;;5043794;28;20028;-79
2021/08/13 01:18:22;;;;;;;10.30;5.82;;;16.80;99.90;;;;;;5039022;28;20115;-79
2021/08/13 01:21:20;;;;;;;9.77;6.07;;;16.80;99.90;;;;;;5052002;28;20058;-79
2021/08/13 01:24:07;;;;;;;9.80;6.38;;;16.70;99.90;;;;;;5030131;28;20568;-79
2021/08/13 01:26:39;;;;;;;10.75;6.95;;;16.70;99.90;;;;;;5046745;28;20021;-78
2021/08/13 01:29:20;;;;;;;12.30;6.40;;;16.70;99.90;;;;;;5051076;28;20392;-79
2021/08/13 01:32:12;;;;;;;10.05;6.70;;;16.60;99.90;;;;;;5064824;28;20386;-78
2021/08/13 01:35:01;;;;;;;8.98;5.97;;;16.60;99.90;;;;;;5050672;28;20032;-79
2021/08/13 01:37:29;;;;;;;9.60;6.65;;;16.60;99.90;;;;;;5061474;28;20036;-78
2021/08/13 01:40:02;;;;;;;9.02;6.47;;;16.50;99.90;;;;;;5071058;28;20078;-79
2021/08/13 01:42:31;;;;;;;10.30;6.90;;;16.50;99.90;;;;;;5034070;28;20032;-78
2021/08/13 01:45:02;;;;;;;9.35;6.80;;;16.50;99.90;;;;;;5022115;28;20028;-79
2021/08/13 01:47:29;;;;;;;10.07;7.05;;;16.50;99.90;;;;;;5050372;28;20398;-79
2021/08/13 01:49:56;;;;;;;11.77;7.82;;;16.40;99.90;;;;;;5068531;28;20036;-79
2021/08/13 01:52:23;;;;;;;9.70;6.72;;;16.40;99.90;;;;;;5035717;28;20024;-79
2021/08/13 01:54:53;;;;;;;9.18;6.78;;;16.40;99.90;;;;;;5048018;28;20514;-80
2021/08/13 01:57:22;;;;;;;10.95;6.75;;;16.40;99.90;;;;;;5033784;28;20043;-80
2021/08/13 01:59:49;;;;;;;8.50;6.55;;;16.30;99.90;;;;;;5050736;28;20029;-80
2021/08/13 02:02:15;;;;;;;10.95;6.93;;;16.30;99.90;;;;;;5050035;28;20032;-79
2021/08/13 02:04:43;;;;;;;10.02;6.53;;;16.30;99.90;;;;;;5056672;28;20035;-79
2021/08/13 02:07:12;;;;;;;9.68;6.40;;;16.30;99.90;;;;;;5033788;28;20135;-79
2021/08/13 02:09:38;;;;;;;9.43;6.15;;;16.20;99.90;;;;;;5040598;28;20058;-79
2021/08/13 02:12:07;;;;;;;9.35;6.28;;;16.20;99.90;;;;;;5070099;28;20020;-78
2021/08/13 02:14:34;;;;;;;9.07;6.38;;;16.20;99.90;;;;;;5063536;28;20478;-78
2021/08/13 02:17:02;;;;;;;10.57;6.35;;;16.20;99.90;;;;;;5055576;28;20039;-78
2021/08/13 02:19:41;;;;;;;10.50;7.72;;;16.20;99.90;;;;;;5056003;28;20020;-79
2021/08/13 02:22:08;;;;;;;11.75;6.70;;;16.20;99.90;;;;;;5047758;28;20039;-79
2021/08/13 02:24:34;;;;;;;9.13;6.97;;;16.10;99.90;;;;;;5030801;28;20174;-78
2021/08/13 02:27:13;;;;;;;10.07;7.57;;;16.10;99.90;;;;;;5064955;28;20073;-79
2021/08/13 02:29:40;;;;;;;9.50;6.50;;;16.20;99.90;;;;;;5032092;28;20113;-79
2021/08/13 02:32:10;;;;;;;14.43;7.15;;;16.10;99.90;;;;;;5031952;28;20063;-79
2021/08/13 02:34:37;;;;;;;10.52;7.18;;;16.10;99.90;;;;;;5055722;28;20044;-80
2021/08/13 02:37:30;;;;;;;11.30;6.85;;;16.10;99.90;;;;;;5043043;28;20048;-78
2021/08/13 02:40:00;;;;;;;9.90;6.88;;;16.10;99.90;;;;;;5042697;28;20044;-78
2021/08/13 02:53:19;;;;;;;10.18;6.70;;;16.10;99.90;;;;;;5124761;22;20056;-88
2021/08/13 02:55:47;;;;;;;13.70;7.53;;;16.10;99.90;;;;;;5039533;28;20020;-87
2021/08/13 02:58:19;;;;;;;11.30;6.70;;;16.10;99.90;;;;;;5039818;28;20031;-88
2021/08/13 03:00:46;;;;;;;9.80;7.30;;;16.10;99.90;;;;;;5011730;28;20033;-87
2021/08/13 03:03:16;;;;;;;9.68;6.47;;;16.10;99.90;;;;;;5033578;28;20425;-89
2021/08/13 03:05:50;;;;;;;8.82;6.38;;;16.10;99.90;;;;;;5024289;28;20044;-88
2021/08/13 03:08:19;;;;;;;7.38;5.90;;;16.10;99.90;;;;;;5033575;28;20032;-87
2021/08/13 03:10:46;;;;;;;8.45;6.28;;;16.10;99.90;;;;;;5032919;28;20093;-87
2021/08/13 03:13:19;;;;;;;8.38;6.10;;;16.10;99.90;;;;;;5036997;28;20029;-87
2021/08/13 03:15:46;;;;;;;8.32;5.78;;;16.10;99.90;;;;;;5016698;28;20037;-88
2021/08/13 03:18:13;;;;;;;8.48;6.00;;;16.00;99.90;;;;;;5019073;28;20060;-88
2021/08/13 03:20:40;;;;;;;11.13;6.38;;;16.00;99.90;;;;;;5019267;28;20124;-88
2021/08/13 03:23:08;;;;;;;8.30;5.43;;;16.00;99.90;;;;;;5017681;28;20116;-88
2021/08/13 03:25:36;;;;;;;7.80;5.72;;;16.00;99.90;;;;;;5032958;28;20021;-88
2021/08/13 03:28:08;;;;;;;9.68;5.80;;;15.90;99.90;;;;;;5019828;28;20032;-87
2021/08/13 03:30:40;;;;;;;8.27;5.95;;;15.90;99.90;;;;;;5037501;28;20449;-88
2021/08/13 03:33:10;;;;;;;9.63;5.97;;;15.90;99.90;;;;;;5017267;28;20549;-88
2021/08/13 03:35:36;;;;;;;8.15;5.68;;;15.90;99.90;;;;;;5015942;28;20025;-89
2021/08/13 03:38:04;;;;;;;7.50;4.88;;;15.90;99.90;;;;;;5015818;28;20021;-88
2021/08/13 03:40:30;;;;;;;7.35;5.30;;;15.90;99.90;;;;;;4998968;28;20029;-89
2021/08/13 03:42:55;;;;;;;7.88;5.60;;;15.90;99.90;;;;;;5003988;28;20563;-88
2021/08/13 03:45:22;;;;;;;8.57;6.05;;;15.80;99.90;;;;;;5029573;28;20021;-88
2021/08/13 03:47:47;;;;;;;7.20;5.13;;;15.80;99.90;;;;;;4979463;28;20037;-88
2021/08/13 03:50:13;;;;;;;7.88;5.13;;;15.80;99.90;;;;;;4986156;28;20033;-87
2021/08/13 03:52:39;;;;;;;7.57;5.60;;;15.80;99.90;;;;;;4999284;28;20025;-87
2021/08/13 03:55:06;;;;;;;8.02;5.70;;;15.70;99.90;;;;;;5011382;28;20078;-87
2021/08/13 03:57:34;;;;;;;7.93;5.95;;;15.70;99.90;;;;;;5017835;28;20143;-88
2021/08/13 04:00:00;;;;;;;7.32;5.07;;;15.60;99.90;;;;;;5002184;28;20112;-89
2021/08/13 04:02:26;;;;;;;7.32;6.05;;;15.60;99.90;;;;;;5028470;28;20594;-89
2021/08/13 04:04:51;;;;;;;9.25;5.40;;;15.60;99.90;;;;;;5015434;28;20426;-87
2021/08/13 04:07:20;;;;;;;9.07;6.28;;;15.50;99.90;;;;;;5006611;28;20039;-88
2021/08/13 04:09:46;;;;;;;8.45;5.88;;;15.50;99.90;;;;;;5034373;28;20033;-88
2021/08/13 04:12:15;;;;;;;8.55;5.95;;;15.50;99.90;;;;;;5012290;28;20059;-87
2021/08/13 04:14:41;;;;;;;9.13;5.75;;;15.50;99.90;;;;;;5002616;28;20514;-87
2021/08/13 04:17:07;;;;;;;9.05;6.43;;;15.50;99.90;;;;;;5034878;28;20037;-86
2021/08/13 04:19:33;;;;;;;10.10;6.28;;;15.50;99.90;;;;;;5018328;28;20036;-88
2021/08/13 04:22:01;;;;;;;10.23;7.00;;;15.50;99.90;;;;;;5016569;28;20024;-88
2021/08/13 04:24:27;;;;;;;9.82;6.82;;;15.50;99.90;;;;;;5001551;28;20118;-89
2021/08/13 04:26:53;;;;;;;9.07;6.53;;;15.40;99.90;;;;;;5018287;28;20507;-88
2021/08/13 04:29:19;;;;;;;9.05;5.97;;;15.40;99.90;;;;;;5014607;28;20032;-88
2021/08/13 04:31:45;;;;;;;8.27;6.45;;;15.50;99.90;;;;;;4987994;28;20029;-89
2021/08/13 04:34:11;;;;;;;11.25;6.28;;;15.50;99.90;;;;;;5017446;28;20063;-87
2021/08/13 04:36:37;;;;;;;10.18;6.65;;;15.50;99.90;;;;;;5009646;28;20043;-89
2021/08/13 04:39:03;;;;;;;8.60;6.38;;;15.50;99.90;;;;;;5018151;28;20039;-88
2021/08/13 04:41:35;;;;;;;8.80;6.28;;;15.60;99.90;;;;;;5007140;28;20061;-89
2021/08/13 04:44:01;;;;;;;8.25;6.13;;;15.60;99.90;;;;;;5015633;28;20464;-88
2021/08/13 04:46:27;;;;;;;9.63;6.07;;;15.70;99.90;;;;;;5014138;28;20025;-87
2021/08/13 04:48:53;;;;;;;10.88;6.78;;;15.70;99.90;;;;;;5013691;28;20033;-88
2021/08/13 04:51:21;;;;;;;8.38;5.50;;;15.80;99.90;;;;;;4999793;28;20435;-89
2021/08/13 04:53:48;;;;;;;8.00;5.80;;;15.80;99.90;;;;;;4982878;28;20061;-89
2021/08/13 04:56:14;;;;;;;8.73;6.00;;;15.90;99.90;;;;;;5034264;28;20072;-89
2021/08/13 04:58:39;;;;;;;8.50;5.82;;;16.00;99.90;;;;;;5000920;28;20514;-90
2021/08/13 05:01:08;;;;;;;12.18;6.50;;;16.00;99.90;;;;;;5033607;28;20040;-90
2021/08/13 05:03:35;;;;;;;9.13;5.20;;;16.10;99.90;;;;;;5013151;28;20112;-88
2021/08/13 05:06:02;;;;;;;9.68;5.80;;;16.20;99.90;;;;;;4995611;28;20025;-89
2021/08/13 05:08:27;;;;;;;9.93;5.78;;;16.20;99.90;;;;;;5034299;28;20025;-90
2021/08/13 05:10:55;;;;;;;7.75;5.55;;;16.30;99.90;;;;;;4997818;28;20025;-87
2021/08/13 05:13:21;;;;;;;10.10;6.00;;;16.30;99.90;;;;;;5016733;28;20059;-89
2021/08/13 05:15:47;;;;;;;7.30;5.53;;;16.40;99.90;;;;;;5004835;28;20499;-88
2021/08/13 05:18:13;;;;;;;9.82;6.13;;;16.40;99.90;;;;;;5001676;28;20060;-90
2021/08/13 05:20:39;;;;;;;7.43;5.43;;;16.50;99.90;;;;;;5032280;28;20056;-89
2021/08/13 05:23:06;;;;;;;9.45;5.43;;;16.50;99.90;;;;;;5016599;28;20037;-88
2021/08/13 05:25:33;;;;;;;8.35;5.00;;;16.60;99.90;;;;;;5025532;28;20027;-88
2021/08/13 05:27:59;;;;;;;8.43;5.45;;;16.60;99.90;;;;;;5013386;28;20424;-88
2021/08/13 05:30:25;;;;;;;7.78;5.85;;;16.70;99.90;;;;;;5017271;28;20029;-88
2021/08/13 05:32:52;;;;;;;13.15;7.22;;;16.70;99.90;;;;;;5018502;28;20036;-88
2021/08/13 05:35:18;;;;;;;8.43;5.95;;;16.70;99.90;;;;;;5015462;28;20029;-88
2021/08/13 05:37:49;;;;;;;10.70;6.72;;;16.80;99.90;;;;;;5037550;28;20420;-88
2021/08/13 05:40:15;;;;;;;8.75;5.65;;;16.90;99.90;;;;;;5028348;28;20033;-88
2021/08/13 05:42:42;;;;;;;10.27;6.95;;;17.00;99.90;;;;;;5030371;28;20071;-87
2021/08/13 05:45:08;;;;;;;14.50;8.10;;;17.10;99.90;;;;;;5016483;28;20036;-90
2021/08/13 05:47:38;;;;;;;12.07;7.90;;;17.20;99.90;;;;;;5037253;28;20035;-89
2021/08/13 05:50:06;;;;;;;10.95;8.55;;;17.30;99.90;;;;;;5032400;28;20039;-87
2021/08/13 05:52:31;;;;;;;12.95;8.95;;;17.50;99.90;;;;;;5004123;28;20079;-88
2021/08/13 05:54:57;;;;;;;11.13;7.88;;;17.80;99.90;;;;;;5014568;28;20040;-88
2021/08/13 05:57:23;;;;;;;11.52;7.85;;;18.20;99.90;;;;;;5010261;28;20376;-88
2021/08/13 05:59:50;;;;;;;12.15;7.82;;;18.50;99.90;;;;;;5001203;28;20111;-88
2021/08/13 06:02:19;;;;;;;9.13;6.75;;;18.90;99.90;;;;;;4998146;28;20460;-88
2021/08/13 06:04:46;;;;;;;10.77;6.85;;;19.20;99.90;;;;;;5016628;28;20032;-88
2021/08/13 06:07:12;;;;;;;9.20;6.75;;;19.50;99.90;;;;;;5016069;28;20029;-87
2021/08/13 06:09:37;;;;;;;7.57;5.95;;;19.70;99.90;;;;;;4999700;28;20049;-88
2021/08/13 06:12:03;;;;;;;9.05;6.15;;;19.70;99.90;;;;;;4997439;28;20022;-88
2021/08/13 06:14:29;;;;;;;8.93;6.40;;;19.80;99.90;;;;;;4971270;28;20039;-88
2021/08/13 06:16:58;;;;;;;8.18;5.78;;;19.90;99.90;;;;;;5016709;28;20024;-88
2021/08/13 06:19:24;;;;;;;8.20;5.80;;;19.90;99.90;;;;;;5032965;28;20032;-89
2021/08/13 06:21:50;;;;;;;9.32;6.47;;;20.00;99.90;;;;;;4980285;28;20083;-88
2021/08/13 06:24:16;;;;;;;10.25;6.60;;;20.20;99.90;;;;;;5044779;28;20554;-88
2021/08/13 06:26:42;;;;;;;8.75;6.15;;;20.30;99.90;;;;;;5010309;28;20129;-87
2021/08/13 06:29:08;;;;;;;7.65;6.07;;;20.40;99.90;;;;;;5042446;28;20416;-89
2021/08/13 06:31:34;;;;;;;8.70;5.95;;;20.50;99.90;;;;;;5014154;28;20025;-89
2021/08/13 06:34:00;;;;;;;8.15;6.03;;;20.70;99.90;;;;;;4997356;28;20116;-88
2021/08/13 06:36:28;;;;;;;9.07;6.20;;;20.90;99.90;;;;;;5027425;28;20029;-87
2021/08/13 06:38:54;;;;;;;8.32;5.68;;;21.00;99.90;;;;;;5015918;28;20044;-88
2021/08/13 06:41:20;;;;;;;8.00;5.53;;;21.20;99.90;;;;;;5011438;28;20039;-89
2021/08/13 06:44:14;;;;;;;7.97;5.18;;;21.30;99.90;;;;;;5017214;28;20037;-87
2021/08/13 06:46:40;;;;;;;7.93;5.78;;;21.40;99.90;;;;;;5032278;28;20025;-88
2021/08/13 06:49:06;;;;;;;8.68;5.75;;;21.50;99.90;;;;;;4999337;28;20032;-88
2021/08/13 06:51:32;;;;;;;9.02;5.88;;;21.60;99.90;;;;;;5015320;28;20040;-89
2021/08/13 06:53:58;;;;;;;8.68;6.18;;;21.70;99.90;;;;;;5012478;28;20119;-88
2021/08/13 06:56:23;;;;;;;9.65;6.43;;;21.90;99.90;;;;;;5011097;28;20502;-89
2021/08/13 06:58:50;;;;;;;10.63;6.63;;;22.00;99.90;;;;;;5032119;28;20025;-88
2021/08/13 07:01:16;;;;;;;8.98;5.68;;;22.10;99.90;;;;;;5031983;28;20029;-89
2021/08/13 07:03:42;;;;;;;6.72;5.35;;;22.20;99.90;;;;;;5030674;28;20403;-89
2021/08/13 07:06:08;;;;;;;8.68;5.50;;;22.50;99.90;;;;;;5000581;28;20499;-89
2021/08/13 07:08:33;;;;;;;8.32;5.45;;;22.70;99.90;;;;;;5013077;28;20139;-89
2021/08/13 07:11:03;;;;;;;7.05;5.07;;;23.00;99.90;;;;;;4997995;28;20025;-86
2021/08/13 07:13:30;;;;;;;7.60;5.82;;;23.30;99.90;;;;;;4987415;28;20030;-84
2021/08/13 07:15:56;;;;;;;7.43;5.20;;;23.50;99.90;;;;;;4994575;28;20029;-87
2021/08/13 07:18:22;;;;;;;7.75;5.03;;;23.70;99.90;;;;;;5022473;28;20515;-87
2021/08/13 07:20:48;;;;;;;7.05;5.78;;;24.00;99.90;;;;;;5028077;28;20036;-87
2021/08/13 07:23:14;;;;;;;8.13;6.10;;;24.00;99.90;;;;;;5017008;28;20033;-87
2021/08/13 07:25:41;;;;;;;8.48;5.78;;;24.00;99.90;;;;;;5004021;28;20021;-89
2021/08/13 07:28:06;;;;;;;7.60;5.43;;;24.20;99.90;;;;;;5018335;28;20033;-89
2021/08/13 07:30:35;;;;;;;9.10;5.20;;;24.40;99.90;;;;;;5017224;28;20614;-88
2021/08/13 07:33:01;;;;;;;8.88;5.30;;;24.70;99.90;;;;;;5008233;28;20112;-89
2021/08/13 07:35:27;;;;;;;8.02;6.03;;;25.00;99.90;;;;;;5023614;28;20140;-86
2021/08/13 07:37:53;;;;;;;8.57;5.85;;;24.80;99.90;;;;;;5032720;28;20025;-88
2021/08/13 07:40:19;;;;;;;8.52;5.78;;;24.70;99.90;;;;;;5003829;28;20059;-89
2021/08/13 07:42:46;;;;;;;7.70;6.13;;;24.80;99.90;;;;;;5009054;28;20033;-88
2021/08/13 07:45:13;;;;;;;6.70;5.15;;;25.10;99.90;;;;;;5015671;28;20057;-88
2021/08/13 07:47:39;;;;;;;6.65;5.80;;;25.30;99.90;;;;;;5031623;28;20057;-88
2021/08/13 07:50:08;;;;;;;8.38;5.85;;;25.50;99.90;;;;;;5033587;28;20052;-88
2021/08/13 07:52:34;;;;;;;6.63;5.43;;;25.70;99.90;;;;;;5015678;28;20017;-88
2021/08/13 07:55:00;;;;;;;8.48;5.72;;;25.60;99.90;;;;;;5001968;28;20132;-87
2021/08/13 07:57:26;;;;;;;7.20;5.53;;;25.60;99.90;;;;;;4993939;28;20044;-86
2021/08/13 07:59:53;;;;;;;8.18;6.22;;;25.60;99.90;;;;;;5000224;28;20560;-86
2021/08/13 08:02:21;;;;;;;6.90;5.60;;;25.50;99.90;;;;;;5007783;28;20154;-87
2021/08/13 08:04:46;;;;;;;6.55;5.70;;;25.40;99.90;;;;;;5019741;28;20045;-85
2021/08/13 08:07:13;;;;;;;9.05;6.53;;;25.30;99.90;;;;;;5047395;28;20434;-87
2021/08/13 08:09:39;;;;;;;7.72;6.32;;;25.00;99.90;;;;;;5017126;28;20028;-87
2021/08/13 08:12:05;;;;;;;8.82;6.47;;;24.90;99.90;;;;;;5029683;28;20132;-86
2021/08/13 08:14:31;;;;;;;7.97;6.03;;;24.70;99.90;;;;;;5048021;28;20175;-87
2021/08/13 08:16:56;;;;;;;6.22;5.55;;;24.70;99.90;;;;;;5045307;28;20507;-87
2021/08/13 08:19:22;;;;;;;9.18;6.75;;;24.90;99.90;;;;;;5032059;28;20045;-88
2021/08/13 08:21:48;;;;;;;9.98;6.07;;;24.90;99.90;;;;;;5027598;28;20041;-88
2021/08/13 08:24:13;;;;;;;9.52;6.10;;;24.90;99.90;;;;;;5016287;28;20068;-88
2021/08/13 08:26:40;;;;;;;8.38;6.03;;;25.00;99.90;;;;;;5015016;28;20060;-88
2021/08/13 08:29:07;;;;;;;9.13;6.45;;;25.10;99.90;;;;;;5029751;28;20041;-87
2021/08/13 08:31:32;;;;;;;7.93;5.65;;;25.30;99.90;;;;;;5030549;28;20067;-88
2021/08/13 08:33:58;;;;;;;9.60;5.88;;;25.50;99.90;;;;;;5014746;28;20064;-87
2021/08/13 08:36:24;;;;;;;7.80;5.95;;;25.70;99.90;;;;;;5044902;28;20112;-87
2021/08/13 08:38:49;;;;;;;7.18;5.85;;;25.80;99.90;;;;;;5065090;28;20037;-88
2021/08/13 08:41:15;;;;;;;7.15;5.72;;;25.70;99.90;;;;;;5038764;28;20041;-87
2021/08/13 08:43:41;;;;;;;7.78;5.55;;;25.60;99.90;;;;;;5017899;28;20052;-87
2021/08/13 08:46:07;;;;;;;6.75;5.22;;;25.40;99.90;;;;;;5043469;28;20041;-88
2021/08/13 08:48:35;;;;;;;7.15;5.32;;;25.30;99.90;;;;;;5039335;28;20025;-87
2021/08/13 08:51:02;;;;;;;7.65;5.68;;;25.30;99.90;;;;;;5038492;28;20041;-86
2021/08/13 08:53:29;;;;;;;7.05;5.32;;;25.30;99.90;;;;;;5027703;28;20029;-87
2021/08/13 08:55:57;;;;;;;11.27;5.80;;;25.30;99.90;;;;;;5038334;28;20131;-87
2021/08/13 08:58:26;;;;;;;7.88;5.75;;;25.40;99.90;;;;;;5035188;28;20033;-86
2021/08/13 09:00:52;;;;;;;9.07;6.50;;;25.50;99.90;;;;;;5040882;28;20496;-86
2021/08/13 09:03:23;;;;;;;8.48;6.15;;;25.60;99.90;;;;;;5014256;28;20072;-88
2021/08/13 09:05:49;;;;;;;10.45;6.60;;;25.70;99.90;;;;;;5017418;28;20033;-87
2021/08/13 09:08:15;;;;;;;9.00;6.05;;;25.80;99.90;;;;;;5015180;28;20032;-88
2021/08/13 09:10:42;;;;;;;8.75;6.32;;;25.90;99.90;;;;;;5011465;28;20542;-87
2021/08/13 09:13:09;;;;;;;9.50;6.15;;;26.10;99.90;;;;;;5029325;28;20087;-88
2021/08/13 09:15:42;;;;;;;10.27;6.78;;;26.10;99.90;;;;;;5021579;28;20133;-88
2021/08/13 09:18:25;;;;;;;10.43;6.95;;;26.00;99.90;;;;;;5015138;28;20123;-88
2021/08/13 09:20:59;;;;;;;7.90;6.13;;;25.90;99.90;;;;;;5019608;28;20048;-87
2021/08/13 09:23:31;;;;;;;10.27;6.88;;;25.80;99.90;;;;;;5030080;28;20029;-89
2021/08/13 09:25:58;;;;;;;6.30;5.40;;;25.70;99.90;;;;;;5048218;28;20033;-88
2021/08/13 09:28:56;;;;;;;;;;;25.80;99.90;;;;;;5027294;28;20114;-88
2021/08/13 09:31:38;;;;;;;9.38;6.05;;;25.80;99.90;;;;;;5024836;28;19915;-88
2021/08/13 09:34:12;;;;;;;10.48;6.25;;;26.00;99.90;;;;;;5008728;28;20037;-88
2021/08/13 09:36:51;;;;;;;9.95;6.40;;;26.00;99.90;;;;;;5030393;28;20044;-89
2021/08/13 09:39:26;;;;;;;10.63;6.82;;;26.00;99.90;;;;;;5023264;28;20029;-89
2021/08/13 09:41:56;;;;;;;13.63;7.15;;;25.50;99.90;;;;;;4989956;28;20029;-90
2021/08/13 09:44:31;;;;;;;8.52;6.60;;;25.50;99.90;;;;;;5034721;28;20021;-89
2021/08/13 09:47:05;;;;;;;12.00;6.05;;;25.60;99.90;;;;;;5033634;28;20029;-88
2021/08/13 09:49:41;;;;;;;7.95;6.47;;;25.70;99.90;;;;;;5033209;28;20025;-89
2021/08/13 09:52:11;;;;;;;;;;;25.80;99.90;;;;;;5008549;28;20403;-88
2021/08/13 09:54:36;;;;;;;10.38;6.68;;;25.90;99.90;;;;;;5005954;28;19917;-90
2021/08/13 09:57:07;;;;;;;7.68;5.97;;;26.00;99.90;;;;;;5026267;28;20467;-91
2021/08/13 09:59:33;;;;;;;12.70;7.22;;;26.10;99.90;;;;;;5012221;28;20035;-88
2021/08/13 10:02:12;;;;;;;6.40;5.65;;;26.00;99.90;;;;;;5012420;28;20120;-90
2021/08/13 10:04:38;;;;;;;8.05;6.07;;;26.00;99.90;;;;;;5022306;28;20033;-91
2021/08/13 10:07:05;;;;;;;7.95;5.78;;;26.00;99.90;;;;;;5022307;28;20036;-89
2021/08/13 10:09:32;;;;;;;8.75;6.18;;;26.10;99.90;;;;;;5023461;28;20056;-89
2021/08/13 10:12:07;;;;;;;8.18;5.93;;;26.20;99.90;;;;;;4989260;28;20037;-88
2021/08/13 10:14:40;;;;;;;11.30;5.60;;;26.10;99.90;;;;;;5005129;28;20560;-87
2021/08/13 10:17:16;;;;;;;7.97;6.03;;;26.20;99.90;;;;;;5012582;28;20048;-87
2021/08/13 10:19:49;;;;;;;7.93;5.93;;;26.20;99.90;;;;;;5010750;28;20041;-90
2021/08/13 10:22:19;;;;;;;6.78;5.55;;;26.30;99.90;;;;;;4992882;28;20037;-88
2021/08/13 10:24:46;;;;;;;9.15;6.10;;;26.30;99.90;;;;;;5023000;28;20504;-88
2021/08/13 10:27:15;;;;;;;9.00;5.97;;;26.40;99.90;;;;;;5012830;28;20537;-87
2021/08/13 10:29:47;;;;;;;8.55;5.97;;;26.60;99.90;;;;;;5011742;28;20028;-89
2021/08/13 10:32:18;;;;;;;8.30;5.88;;;26.70;99.90;;;;;;5006756;28;20030;-88
2021/08/13 10:34:46;;;;;;;6.25;5.30;;;26.90;99.90;;;;;;5011708;28;20116;-88
2021/08/13 10:37:14;;;;;;;8.25;5.43;;;26.90;99.90;;;;;;5013919;28;20119;-88
2021/08/13 10:39:44;;;;;;;9.55;6.15;;;27.00;99.90;;;;;;5011337;28;20179;-87
2021/08/13 10:42:21;;;;;;;8.45;6.53;;;27.10;99.90;;;;;;5015013;28;20029;-87
2021/08/13 10:45:01;;;;;;;7.32;5.40;;;27.10;99.90;;;;;;5013937;28;20036;-87
2021/08/13 10:47:32;;;;;;;7.22;5.80;;;27.20;99.90;;;;;;5009836;28;20029;-88
2021/08/13 10:50:01;;;;;;;6.47;5.20;;;27.40;99.90;;;;;;5005356;28;20029;-88
2021/08/13 10:52:33;;;;;;;7.15;5.07;;;27.50;99.90;;;;;;4992445;28;20088;-88
2021/08/13 10:54:59;;;;;;;7.60;5.65;;;27.50;99.90;;;;;;4997371;28;20029;-87
2021/08/13 10:57:48;;;;;;;6.90;5.63;;;27.50;99.90;;;;;;5029242;28;20036;-88
2021/08/13 11:00:16;;;;;;;7.38;5.35;;;27.60;99.90;;;;;;4996276;28;20041;-88
2021/08/13 11:03:13;;;;;;;5.95;5.18;;;27.50;99.90;;;;;;5030937;28;20028;-85
2021/08/13 11:05:50;;;;;;;8.70;6.13;;;27.50;99.90;;;;;;5029138;28;20048;-87
2021/08/13 11:08:16;;;;;;;8.07;5.78;;;27.60;99.90;;;;;;5024930;28;20029;-87
2021/08/13 11:10:47;;;;;;;7.55;6.03;;;27.70;99.90;;;;;;5012344;28;20040;-88
2021/08/13 11:13:19;;;;;;;7.00;5.70;;;27.70;99.90;;;;;;5014661;28;20025;-88
2021/08/13 11:15:48;;;;;;;7.05;5.63;;;27.70;99.90;;;;;;5040412;28;20025;-88
2021/08/13 11:18:36;;;;;;;8.27;5.43;;;27.70;99.90;;;;;;5000186;28;20124;-88
2021/08/13 11:21:11;;;;;;;6.28;5.60;;;27.80;99.90;;;;;;4995544;28;20102;-87
2021/08/13 11:23:59;;;;;;;7.83;5.73;;;27.90;99.90;;;;;;5010984;28;20538;-87
2021/08/13 11:26:50;;;;;;;7.90;5.60;;;27.80;99.90;;;;;;5017921;28;20395;-87
2021/08/13 11:29:35;;;;;;;7.60;5.60;;;27.80;99.90;;;;;;5039844;28;20117;-89
2021/08/13 11:32:14;;;;;;;6.72;5.20;;;27.70;99.90;;;;;;5004464;28;20026;-88
2021/08/13 11:35:01;;;;;;;8.48;5.90;;;27.60;99.90;;;;;;5026269;28;20033;-88
2021/08/13 11:37:37;;;;;;;5.35;4.65;;;27.60;99.90;;;;;;5014479;28;20025;-90
2021/08/13 11:40:07;;;;;;;5.28;4.68;;;27.40;99.90;;;;;;5025997;28;20037;-90
2021/08/13 11:42:35;;;;;;;5.45;4.85;;;27.50;99.90;;;;;;5030982;28;20053;-89
2021/08/13 11:45:07;;;;;;;6.47;5.20;;;27.50;99.90;;;;;;5015958;28;20075;-89
2021/08/13 11:47:36;;;;;;;6.38;5.03;;;27.60;99.90;;;;;;5033221;28;20076;-89
2021/08/13 11:50:07;;;;;;;6.50;5.15;;;27.60;99.70;;;;;;5032270;28;20025;-89
2021/08/13 11:52:35;;;;;;;7.32;4.72;;;27.60;99.90;;;;;;5048638;28;20017;-88
2021/08/13 11:55:17;;;;;;;6.15;5.05;;;27.50;99.90;;;;;;5027386;28;20040;-89
2021/08/13 11:57:43;;;;;;;8.18;5.15;;;27.60;99.90;;;;;;5020994;28;20032;-88
2021/08/13 12:00:36;;;;;;;6.68;4.93;;;27.70;99.90;;;;;;5023496;28;20112;-89
2021/08/13 12:03:09;;;;;;;6.28;4.95;;;27.70;99.30;;;;;;5014320;28;20032;-86
2021/08/13 12:05:40;;;;;;;6.40;4.50;;;27.90;98.30;;;;;;5005314;28;20032;-87
2021/08/13 12:08:09;;;;;;;6.55;4.90;;;27.90;97.90;;;;;;4994571;28;20033;-87
2021/08/13 12:10:36;;;;;;;6.22;4.80;;;28.00;99.90;;;;;;4998671;28;20076;-87
2021/08/13 12:13:08;;;;;;;6.25;4.70;;;28.10;94.70;;;;;;5003831;28;20531;-87
2021/08/13 12:15:36;;;;;;;6.40;4.63;;;28.20;98.60;;;;;;5024600;28;20091;-86
2021/08/13 12:18:06;;;;;;;5.18;4.35;;;28.30;99.90;;;;;;5012557;28;20044;-85
2021/08/13 12:20:33;;;;;;;5.93;3.83;;;28.40;97.50;;;;;;5009530;28;20039;-85
2021/08/13 12:23:05;;;;;;;5.80;5.03;;;28.40;98.40;;;;;;5047808;28;20058;-86
2021/08/13 12:25:38;;;;;;;6.22;4.30;;;28.40;99.10;;;;;;4989645;28;20037;-86
2021/08/13 12:28:05;;;;;;;7.05;5.20;;;28.40;98.80;;;;;;5032797;28;20033;-86
2021/08/13 12:30:32;;;;;;;5.18;4.35;;;28.50;98.00;;;;;;5009216;28;20484;-86
2021/08/13 12:32:59;;;;;;;7.43;4.78;;;28.50;93.60;;;;;;5026996;28;20416;-86
2021/08/13 12:35:38;;;;;;;11.55;5.30;;;28.50;97.30;;;;;;5015757;28;20037;-86
2021/08/13 12:38:06;;;;;;;5.93;4.50;;;28.70;97.70;;;;;;5011735;28;20484;-86
2021/08/13 12:40:58;;;;;;;6.50;4.65;;;28.70;93.30;;;;;;5017881;28;20132;-86
2021/08/13 12:43:24;;;;;;;5.63;4.45;;;28.90;96.90;;;;;;5013989;28;20032;-86
2021/08/13 12:45:53;;;;;;;4.95;4.20;;;29.00;94.60;;;;;;5015606;28;20036;-86
2021/08/13 12:48:23;;;;;;;7.00;4.35;;;29.00;95.70;;;;;;5013789;28;20326;-86
2021/08/13 12:51:00;;;;;;;5.88;4.80;;;29.00;96.00;;;;;;5022336;28;20040;-86
2021/08/13 12:53:39;;;;;;;5.50;4.13;;;28.90;96.20;;;;;;4995591;28;20033;-87
2021/08/13 12:56:18;;;;;;;7.78;4.53;;;28.90;97.60;;;;;;5012235;28;20025;-86
2021/08/13 12:58:46;;;;;;;5.47;4.38;;;29.00;96.80;;;;;;5016302;28;20025;-85
2021/08/13 13:01:32;;;;;;;7.57;4.68;;;28.80;94.40;;;;;;4980248;28;20035;-85
2021/08/13 13:04:09;;;;;;;6.13;4.88;;;28.80;95.40;;;;;;5022230;28;20034;-86
2021/08/13 13:06:35;;;;;;;4.93;4.07;;;28.90;95.00;;;;;;5032289;28;20029;-86
2021/08/13 13:09:02;;;;;;;5.10;4.50;;;29.00;97.00;;;;;;5005518;28;20312;-86